sensor_id;sensor_type;location;lat;lon;timestamp;pressure;altitude;pressure_sealevel;temperature;humidity
24666;BME280;29726;53.532;-1.478;2022-08-19T00:01:24;99826.22;;;23.44;nan
24666;BME280;29726;53.532;-1.478;2022-08-19T00:03:50;99831.16;;;23.44;nan
24666;BME280;29726;53.532;-1.478;2022-08-19T00:06:16;99831.16;;;23.44;nan
24666;BME280;29726;53.532;-1.478;2022-08-19T00:08:42;99827.16;;;23.39;nan
24666;BME280;29726;53.532;-1.478;2022-08-19T00:11:08;99835.16;;;23.41;nan
24666;BME280;29726;53.532;-1.478;2022-08-19T00:13:34;99814.09;;;23.21;nan
24666;BME280;29726;53.532;-1.478;2022-08-19T00:16:00;99840.47;;;23.37;nan
24666;BME280;29726;53.532;-1.478;2022-08-19T00:18:26;99843.34;;;23.37;nan
24666;BME280;29726;53.532;-1.478;2022-08-19T00:20:52;99844.06;;;23.37;nan
24666;BME280;29726;53.532;-1.478;2022-08-19T00:23:17;99848.25;;;23.29;nan
24666;BME280;29726;53.532;-1.478;2022-08-19T00:25:44;99846.94;;;23.30;nan
24666;BME280;29726;53.532;-1.478;2022-08-19T00:28:09;99851.50;;;23.33;nan
24666;BME280;29726;53.532;-1.478;2022-08-19T00:30:35;99853.59;;;23.32;nan
24666;BME280;29726;53.532;-1.478;2022-08-19T00:33:00;99846.00;;;23.27;nan
24666;BME280;29726;53.532;-1.478;2022-08-19T00:35:25;99849.59;;;23.28;nan
24666;BME280;29726;53.532;-1.478;2022-08-19T00:37:53;99862.91;;;23.25;nan
24666;BME280;29726;53.532;-1.478;2022-08-19T00:40:19;99864.41;;;23.26;nan
24666;BME280;29726;53.532;-1.478;2022-08-19T00:42:45;99860.25;;;23.27;nan
24666;BME280;29726;53.532;-1.478;2022-08-19T00:45:16;99866.50;;;23.26;nan
24666;BME280;29726;53.532;-1.478;2022-08-19T00:47:43;99870.69;;;23.25;nan
24666;BME280;29726;53.532;-1.478;2022-08-19T00:50:09;99873.34;;;23.23;nan
24666;BME280;29726;53.532;-1.478;2022-08-19T00:52:39;99877.53;;;23.22;nan
24666;BME280;29726;53.532;-1.478;2022-08-19T00:55:08;99884.34;;;23.19;nan
24666;BME280;29726;53.532;-1.478;2022-08-19T00:57:40;99884.34;;;23.19;nan
24666;BME280;29726;53.532;-1.478;2022-08-19T01:00:09;99877.31;;;23.12;nan
24666;BME280;29726;53.532;-1.478;2022-08-19T01:02:37;99874.47;;;23.12;nan
24666;BME280;29726;53.532;-1.478;2022-08-19T01:05:06;99871.59;;;23.05;nan
24666;BME280;29726;53.532;-1.478;2022-08-19T01:07:34;99866.66;;;23.05;nan
24666;BME280;29726;53.532;-1.478;2022-08-19T01:10:01;99868.38;;;23.08;nan
24666;BME280;29726;53.532;-1.478;2022-08-19T01:12:27;99868.78;;;22.97;nan
24666;BME280;29726;53.532;-1.478;2022-08-19T01:14:53;99880.91;;;23.05;nan
24666;BME280;29726;53.532;-1.478;2022-08-19T01:17:20;99877.69;;;22.94;nan
24666;BME280;29726;53.532;-1.478;2022-08-19T01:19:46;99884.72;;;23.00;nan
24666;BME280;29726;53.532;-1.478;2022-08-19T01:24:53;99901.03;;;23.00;nan
24666;BME280;29726;53.532;-1.478;2022-08-19T01:27:19;99905.56;;;22.88;nan
24666;BME280;29726;53.532;-1.478;2022-08-19T01:29:44;99912.03;;;22.96;nan
24666;BME280;29726;53.532;-1.478;2022-08-19T01:32:16;99904.06;;;22.87;nan
24666;BME280;29726;53.532;-1.478;2022-08-19T01:34:42;99917.34;;;22.92;nan
24666;BME280;29726;53.532;-1.478;2022-08-19T01:37:14;99918.47;;;22.89;nan
24666;BME280;29726;53.532;-1.478;2022-08-19T01:39:40;99904.97;;;22.82;nan
24666;BME280;29726;53.532;-1.478;2022-08-19T01:42:07;99921.69;;;22.85;nan
24666;BME280;29726;53.532;-1.478;2022-08-19T01:44:37;99908.00;;;22.69;nan
24666;BME280;29726;53.532;-1.478;2022-08-19T01:47:03;99922.06;;;22.82;nan
24666;BME280;29726;53.532;-1.478;2022-08-19T01:49:29;99920.34;;;22.79;nan
24666;BME280;29726;53.532;-1.478;2022-08-19T01:51:54;99930.78;;;22.76;nan
24666;BME280;29726;53.532;-1.478;2022-08-19T01:54:22;99930.78;;;22.69;nan
24666;BME280;29726;53.532;-1.478;2022-08-19T01:56:49;99939.69;;;22.73;nan
24666;BME280;29726;53.532;-1.478;2022-08-19T01:59:19;99921.06;;;22.64;nan
24666;BME280;29726;53.532;-1.478;2022-08-19T02:01:45;99936.47;;;22.69;nan
24666;BME280;29726;53.532;-1.478;2022-08-19T02:04:11;99926.75;;;22.57;nan
24666;BME280;29726;53.532;-1.478;2022-08-19T02:06:36;99939.84;;;22.60;nan
24666;BME280;29726;53.532;-1.478;2022-08-19T02:09:03;99939.28;;;22.61;nan
24666;BME280;29726;53.532;-1.478;2022-08-19T02:11:34;99947.63;;;22.59;nan
24666;BME280;29726;53.532;-1.478;2022-08-19T02:14:02;99943.63;;;22.55;nan
24666;BME280;29726;53.532;-1.478;2022-08-19T02:16:29;99930.13;;;22.48;nan
24666;BME280;29726;53.532;-1.478;2022-08-19T02:18:56;99954.06;;;22.52;nan
24666;BME280;29726;53.532;-1.478;2022-08-19T02:21:22;99946.44;;;22.47;nan
24666;BME280;29726;53.532;-1.478;2022-08-19T02:23:49;99953.44;;;22.46;nan
24666;BME280;29726;53.532;-1.478;2022-08-19T02:26:15;99953.81;;;22.43;nan
24666;BME280;29726;53.532;-1.478;2022-08-19T02:28:41;99967.47;;;22.44;nan
24666;BME280;29726;53.532;-1.478;2022-08-19T02:31:17;99961.59;;;22.42;nan
24666;BME280;29726;53.532;-1.478;2022-08-19T02:33:43;99960.78;;;22.34;nan
24666;BME280;29726;53.532;-1.478;2022-08-19T02:36:11;99959.81;;;22.32;nan
24666;BME280;29726;53.532;-1.478;2022-08-19T02:38:38;99964.16;;;22.33;nan
24666;BME280;29726;53.532;-1.478;2022-08-19T02:41:13;99972.69;;;22.33;nan
24666;BME280;29726;53.532;-1.478;2022-08-19T02:43:39;99960.53;;;22.25;nan
24666;BME280;29726;53.532;-1.478;2022-08-19T02:46:32;99973.09;;;22.29;nan
24666;BME280;29726;53.532;-1.478;2022-08-19T02:49:01;99973.44;;;22.26;nan
24666;BME280;29726;53.532;-1.478;2022-08-19T02:51:37;99968.09;;;22.22;nan
24666;BME280;29726;53.532;-1.478;2022-08-19T02:54:04;99963.72;;;22.21;nan
24666;BME280;29726;53.532;-1.478;2022-08-19T02:56:30;99938.19;;;21.94;nan
24666;BME280;29726;53.532;-1.478;2022-08-19T02:58:57;99969.19;;;22.12;nan
24666;BME280;29726;53.532;-1.478;2022-08-19T03:01:31;99970.16;;;22.14;nan
24666;BME280;29726;53.532;-1.478;2022-08-19T03:03:58;99981.13;;;22.10;nan
24666;BME280;29726;53.532;-1.478;2022-08-19T03:06:25;99972.91;;;21.99;nan
24666;BME280;29726;53.532;-1.478;2022-08-19T03:08:51;99986.97;;;22.05;nan
24666;BME280;29726;53.532;-1.478;2022-08-19T03:11:27;99987.50;;;22.03;nan
24666;BME280;29726;53.532;-1.478;2022-08-19T03:13:53;99993.56;;;22.00;nan
24666;BME280;29726;53.532;-1.478;2022-08-19T03:16:20;99992.59;;;21.98;nan
24666;BME280;29726;53.532;-1.478;2022-08-19T03:18:46;100008.34;;;21.98;nan
24666;BME280;29726;53.532;-1.478;2022-08-19T03:21:20;100005.28;;;21.97;nan
24666;BME280;29726;53.532;-1.478;2022-08-19T03:23:46;100002.97;;;21.88;nan
24666;BME280;29726;53.532;-1.478;2022-08-19T03:26:12;100002.97;;;21.88;nan
24666;BME280;29726;53.532;-1.478;2022-08-19T03:28:39;100010.91;;;21.89;nan
24666;BME280;29726;53.532;-1.478;2022-08-19T03:31:08;100003.50;;;21.86;nan
24666;BME280;29726;53.532;-1.478;2022-08-19T03:33:34;100020.16;;;21.82;nan
24666;BME280;29726;53.532;-1.478;2022-08-19T03:36:13;100019.59;;;21.84;nan
24666;BME280;29726;53.532;-1.478;2022-08-19T03:38:43;100028.47;;;21.80;nan
24666;BME280;29726;53.532;-1.478;2022-08-19T03:41:15;100011.28;;;21.65;nan
24666;BME280;29726;53.532;-1.478;2022-08-19T03:43:42;100033.75;;;21.76;nan
24666;BME280;29726;53.532;-1.478;2022-08-19T03:46:10;100027.09;;;21.74;nan
24666;BME280;29726;53.532;-1.478;2022-08-19T03:48:37;100033.16;;;21.70;nan
24666;BME280;29726;53.532;-1.478;2022-08-19T03:51:04;100046.56;;;21.70;nan
24666;BME280;29726;53.532;-1.478;2022-08-19T03:53:32;100033.94;;;21.58;nan
24666;BME280;29726;53.532;-1.478;2022-08-19T03:55:58;100041.38;;;21.61;nan
24666;BME280;29726;53.532;-1.478;2022-08-19T03:58:28;100039.59;;;21.58;nan
24666;BME280;29726;53.532;-1.478;2022-08-19T04:00:55;100043.44;;;21.60;nan
24666;BME280;29726;53.532;-1.478;2022-08-19T04:03:22;100048.91;;;21.58;nan
24666;BME280;29726;53.532;-1.478;2022-08-19T04:05:47;100046.41;;;21.55;nan
24666;BME280;29726;53.532;-1.478;2022-08-19T04:08:13;100050.50;;;21.46;nan
24666;BME280;29726;53.532;-1.478;2022-08-19T04:10:40;100056.81;;;21.52;nan
24666;BME280;29726;53.532;-1.478;2022-08-19T04:13:06;100068.31;;;21.47;nan
24666;BME280;29726;53.532;-1.478;2022-08-19T04:15:38;100069.63;;;21.46;nan
24666;BME280;29726;53.532;-1.478;2022-08-19T04:18:07;100059.69;;;21.39;nan
24666;BME280;29726;53.532;-1.478;2022-08-19T04:20:39;100057.44;;;21.38;nan
24666;BME280;29726;53.532;-1.478;2022-08-19T04:23:04;100046.19;;;21.32;nan
24666;BME280;29726;53.532;-1.478;2022-08-19T04:25:38;100064.44;;;21.37;nan
24666;BME280;29726;53.532;-1.478;2022-08-19T04:28:04;100048.97;;;21.25;nan
24666;BME280;29726;53.532;-1.478;2022-08-19T04:30:29;100067.59;;;21.33;nan
24666;BME280;29726;53.532;-1.478;2022-08-19T04:32:55;100076.44;;;21.30;nan
24666;BME280;29726;53.532;-1.478;2022-08-19T04:35:20;100058.91;;;21.18;nan
24666;BME280;29726;53.532;-1.478;2022-08-19T04:37:46;100079.78;;;21.21;nan
24666;BME280;29726;53.532;-1.478;2022-08-19T04:40:11;100072.91;;;21.16;nan
24666;BME280;29726;53.532;-1.478;2022-08-19T04:42:55;100075.31;;;21.12;nan
24666;BME280;29726;53.532;-1.478;2022-08-19T04:45:21;100092.97;;;21.18;nan
24666;BME280;29726;53.532;-1.478;2022-08-19T04:47:47;100085.56;;;21.15;nan
24666;BME280;29726;53.532;-1.478;2022-08-19T04:50:13;100080.56;;;21.08;nan
24666;BME280;29726;53.532;-1.478;2022-08-19T04:52:39;100078.63;;;21.03;nan
24666;BME280;29726;53.532;-1.478;2022-08-19T04:55:09;100084.63;;;21.00;nan
24666;BME280;29726;53.532;-1.478;2022-08-19T04:57:36;100080.28;;;20.99;nan
24666;BME280;29726;53.532;-1.478;2022-08-19T05:00:05;100094.47;;;20.99;nan
24666;BME280;29726;53.532;-1.478;2022-08-19T05:02:30;100102.97;;;20.99;nan
24666;BME280;29726;53.532;-1.478;2022-08-19T05:04:57;100103.09;;;20.93;nan
24666;BME280;29726;53.532;-1.478;2022-08-19T05:07:24;100107.47;;;20.94;nan
24666;BME280;29726;53.532;-1.478;2022-08-19T05:09:50;100112.38;;;20.94;nan
24666;BME280;29726;53.532;-1.478;2022-08-19T05:12:16;100105.09;;;20.85;nan
24666;BME280;29726;53.532;-1.478;2022-08-19T05:14:41;100114.03;;;20.89;nan
24666;BME280;29726;53.532;-1.478;2022-08-19T05:17:07;100109.97;;;20.85;nan
24666;BME280;29726;53.532;-1.478;2022-08-19T05:19:32;100115.13;;;20.86;nan
24666;BME280;29726;53.532;-1.478;2022-08-19T05:22:16;100058.53;;;20.42;nan
24666;BME280;29726;53.532;-1.478;2022-08-19T05:24:58;100119.34;;;20.80;nan
24666;BME280;29726;53.532;-1.478;2022-08-19T05:27:25;100080.44;;;20.54;nan
24666;BME280;29726;53.532;-1.478;2022-08-19T05:29:50;100120.56;;;20.71;nan
24666;BME280;29726;53.532;-1.478;2022-08-19T05:32:16;100130.06;;;20.74;nan
24666;BME280;29726;53.532;-1.478;2022-08-19T05:34:41;100136.41;;;20.67;nan
24666;BME280;29726;53.532;-1.478;2022-08-19T05:37:08;100132.25;;;20.68;nan
24666;BME280;29726;53.532;-1.478;2022-08-19T05:39:35;100138.47;;;20.66;nan
24666;BME280;29726;53.532;-1.478;2022-08-19T05:42:07;100106.16;;;20.43;nan
24666;BME280;29726;53.532;-1.478;2022-08-19T05:44:36;100145.75;;;20.62;nan
24666;BME280;29726;53.532;-1.478;2022-08-19T05:47:05;100149.91;;;20.61;nan
24666;BME280;29726;53.532;-1.478;2022-08-19T05:49:36;100153.84;;;20.58;nan
24666;BME280;29726;53.532;-1.478;2022-08-19T05:52:07;100150.88;;;20.50;nan
24666;BME280;29726;53.532;-1.478;2022-08-19T05:54:33;100125.78;;;20.28;nan
24666;BME280;29726;53.532;-1.478;2022-08-19T05:57:00;100161.69;;;20.52;nan
24666;BME280;29726;53.532;-1.478;2022-08-19T05:59:26;100162.00;;;20.48;nan
24666;BME280;29726;53.532;-1.478;2022-08-19T06:01:52;100167.47;;;20.46;nan
24666;BME280;29726;53.532;-1.478;2022-08-19T06:04:19;100162.13;;;20.43;nan
24666;BME280;29726;53.532;-1.478;2022-08-19T06:06:47;100154.94;;;20.42;nan
24666;BME280;29726;53.532;-1.478;2022-08-19T06:09:12;100145.97;;;20.38;nan
24666;BME280;29726;53.532;-1.478;2022-08-19T06:11:44;100148.50;;;20.41;nan
24666;BME280;29726;53.532;-1.478;2022-08-19T06:14:14;100140.06;;;20.36;nan
24666;BME280;29726;53.532;-1.478;2022-08-19T06:16:41;100139.84;;;20.34;nan
24666;BME280;29726;53.532;-1.478;2022-08-19T06:19:13;100138.13;;;20.31;nan
24666;BME280;29726;53.532;-1.478;2022-08-19T06:21:42;100142.78;;;20.28;nan
24666;BME280;29726;53.532;-1.478;2022-08-19T06:24:11;100146.09;;;20.32;nan
24666;BME280;29726;53.532;-1.478;2022-08-19T06:26:40;100152.06;;;20.29;nan
24666;BME280;29726;53.532;-1.478;2022-08-19T06:29:07;100154.69;;;20.27;nan
24666;BME280;29726;53.532;-1.478;2022-08-19T06:31:35;100141.47;;;20.17;nan
24666;BME280;29726;53.532;-1.478;2022-08-19T06:34:03;100160.34;;;20.27;nan
24666;BME280;29726;53.532;-1.478;2022-08-19T06:36:32;100150.19;;;20.19;nan
24666;BME280;29726;53.532;-1.478;2022-08-19T06:39:04;100157.41;;;20.20;nan
24666;BME280;29726;53.532;-1.478;2022-08-19T06:41:31;100157.63;;;20.22;nan
24666;BME280;29726;53.532;-1.478;2022-08-19T06:43:59;100146.38;;;20.16;nan
24666;BME280;29726;53.532;-1.478;2022-08-19T06:46:25;100156.09;;;20.21;nan
24666;BME280;29726;53.532;-1.478;2022-08-19T06:48:51;100147.91;;;20.17;nan
24666;BME280;29726;53.532;-1.478;2022-08-19T06:51:19;100148.88;;;20.20;nan
24666;BME280;29726;53.532;-1.478;2022-08-19T06:53:47;100140.25;;;20.12;nan
24666;BME280;29726;53.532;-1.478;2022-08-19T06:56:18;100161.53;;;20.19;nan
24666;BME280;29726;53.532;-1.478;2022-08-19T06:58:44;100150.28;;;20.13;nan
24666;BME280;29726;53.532;-1.478;2022-08-19T07:01:10;100160.75;;;20.18;nan
24666;BME280;29726;53.532;-1.478;2022-08-19T07:03:37;100148.75;;;20.12;nan
24666;BME280;29726;53.532;-1.478;2022-08-19T07:06:10;100155.97;;;20.13;nan
24666;BME280;29726;53.532;-1.478;2022-08-19T07:08:37;100161.63;;;20.13;nan
24666;BME280;29726;53.532;-1.478;2022-08-19T07:11:06;100154.78;;;20.09;nan
24666;BME280;29726;53.532;-1.478;2022-08-19T07:13:33;100136.91;;;19.95;nan
24666;BME280;29726;53.532;-1.478;2022-08-19T07:16:06;100166.44;;;20.18;nan
24666;BME280;29726;53.532;-1.478;2022-08-19T07:18:32;100168.00;;;20.19;nan
24666;BME280;29726;53.532;-1.478;2022-08-19T07:21:10;100159.78;;;20.16;nan
24666;BME280;29726;53.532;-1.478;2022-08-19T07:23:36;100166.69;;;20.20;nan
24666;BME280;29726;53.532;-1.478;2022-08-19T07:26:16;100167.44;;;20.21;nan
24666;BME280;29726;53.532;-1.478;2022-08-19T07:28:43;100151.81;;;20.14;nan
24666;BME280;29726;53.532;-1.478;2022-08-19T07:31:14;100157.47;;;20.14;nan
24666;BME280;29726;53.532;-1.478;2022-08-19T07:33:41;100169.19;;;20.23;nan
24666;BME280;29726;53.532;-1.478;2022-08-19T07:36:09;100169.63;;;20.27;nan
24666;BME280;29726;53.532;-1.478;2022-08-19T07:38:37;100161.97;;;20.23;nan
24666;BME280;29726;53.532;-1.478;2022-08-19T07:41:05;100154.91;;;20.29;nan
24666;BME280;29726;53.532;-1.478;2022-08-19T07:43:30;100163.09;;;20.32;nan
24666;BME280;29726;53.532;-1.478;2022-08-19T07:45:56;100159.28;;;20.30;nan
24666;BME280;29726;53.532;-1.478;2022-08-19T07:48:23;100154.59;;;20.32;nan
24666;BME280;29726;53.532;-1.478;2022-08-19T07:50:56;100159.06;;;20.41;nan
24666;BME280;29726;53.532;-1.478;2022-08-19T07:53:23;100150.44;;;20.33;nan
24666;BME280;29726;53.532;-1.478;2022-08-19T07:55:49;100163.09;;;20.45;nan
24666;BME280;29726;53.532;-1.478;2022-08-19T07:58:17;100153.84;;;20.45;nan
24666;BME280;29726;53.532;-1.478;2022-08-19T08:00:45;100148.91;;;20.45;nan
24666;BME280;29726;53.532;-1.478;2022-08-19T08:03:12;100160.06;;;20.56;nan
24666;BME280;29726;53.532;-1.478;2022-08-19T08:05:37;100145.22;;;20.50;nan
24666;BME280;29726;53.532;-1.478;2022-08-19T08:08:21;100146.09;;;20.58;nan
24666;BME280;29726;53.532;-1.478;2022-08-19T08:11:07;100148.59;;;20.62;nan
24666;BME280;29726;53.532;-1.478;2022-08-19T08:13:34;100163.13;;;20.71;nan
24666;BME280;29726;53.532;-1.478;2022-08-19T08:16:01;100162.16;;;20.69;nan
24666;BME280;29726;53.532;-1.478;2022-08-19T08:18:26;100163.31;;;20.73;nan
24666;BME280;29726;53.532;-1.478;2022-08-19T08:20:52;100150.13;;;20.76;nan
24666;BME280;29726;53.532;-1.478;2022-08-19T08:23:18;100158.31;;;20.79;nan
24666;BME280;29726;53.532;-1.478;2022-08-19T08:25:56;100173.09;;;20.91;nan
24666;BME280;29726;53.532;-1.478;2022-08-19T08:28:23;100154.19;;;20.93;nan
24666;BME280;29726;53.532;-1.478;2022-08-19T08:30:49;100150.25;;;20.96;nan
24666;BME280;29726;53.532;-1.478;2022-08-19T08:33:21;100154.50;;;21.03;nan
24666;BME280;29726;53.532;-1.478;2022-08-19T08:35:47;100144.66;;;21.04;nan
24666;BME280;29726;53.532;-1.478;2022-08-19T08:38:14;100145.75;;;21.14;nan
24666;BME280;29726;53.532;-1.478;2022-08-19T08:43:29;100135.56;;;21.18;nan
24666;BME280;29726;53.532;-1.478;2022-08-19T08:46:10;100150.09;;;21.28;nan
24666;BME280;29726;53.532;-1.478;2022-08-19T08:48:48;100135.13;;;21.27;nan
24666;BME280;29726;53.532;-1.478;2022-08-19T08:51:24;100143.38;;;21.38;nan
24666;BME280;29726;53.532;-1.478;2022-08-19T08:53:52;100144.59;;;21.43;nan
24666;BME280;29726;53.532;-1.478;2022-08-19T08:56:19;100131.69;;;21.42;nan
24666;BME280;29726;53.532;-1.478;2022-08-19T08:58:53;100126.66;;;21.48;nan
24666;BME280;29726;53.532;-1.478;2022-08-19T09:01:20;100142.25;;;21.54;nan
24666;BME280;29726;53.532;-1.478;2022-08-19T09:03:46;100135.47;;;21.57;nan
24666;BME280;29726;53.532;-1.478;2022-08-19T09:09:05;100146.38;;;21.66;nan
24666;BME280;29726;53.532;-1.478;2022-08-19T09:15:06;100171.00;;;21.84;nan
24666;BME280;29726;53.532;-1.478;2022-08-19T09:17:34;100171.78;;;21.85;nan
24666;BME280;29726;53.532;-1.478;2022-08-19T09:22:33;100175.53;;;22.00;nan
24666;BME280;29726;53.532;-1.478;2022-08-19T09:24:59;100168.53;;;22.01;nan
24666;BME280;29726;53.532;-1.478;2022-08-19T09:27:26;100183.94;;;22.05;nan
24666;BME280;29726;53.532;-1.478;2022-08-19T09:29:53;100194.59;;;22.12;nan
24666;BME280;29726;53.532;-1.478;2022-08-19T09:32:20;100183.75;;;22.11;nan
24666;BME280;29726;53.532;-1.478;2022-08-19T09:34:45;100191.63;;;22.18;nan
24666;BME280;29726;53.532;-1.478;2022-08-19T09:37:11;100193.16;;;22.19;nan
24666;BME280;29726;53.532;-1.478;2022-08-19T09:39:38;100192.44;;;22.26;nan
24666;BME280;29726;53.532;-1.478;2022-08-19T09:42:04;100178.22;;;22.26;nan
24666;BME280;29726;53.532;-1.478;2022-08-19T09:44:33;100195.34;;;22.33;nan
24666;BME280;29726;53.532;-1.478;2022-08-19T09:46:59;100197.09;;;22.36;nan
24666;BME280;29726;53.532;-1.478;2022-08-19T09:49:25;100199.03;;;22.41;nan
24666;BME280;29726;53.532;-1.478;2022-08-19T09:51:52;100198.50;;;22.43;nan
24666;BME280;29726;53.532;-1.478;2022-08-19T09:54:19;100195.09;;;22.44;nan
24666;BME280;29726;53.532;-1.478;2022-08-19T09:56:45;100194.34;;;22.44;nan
24666;BME280;29726;53.532;-1.478;2022-08-19T09:59:10;100200.09;;;22.51;nan
24666;BME280;29726;53.532;-1.478;2022-08-19T10:01:37;100198.91;;;22.47;nan
24666;BME280;29726;53.532;-1.478;2022-08-19T10:04:02;100204.47;;;22.52;nan
24666;BME280;29726;53.532;-1.478;2022-08-19T10:06:33;100207.50;;;22.54;nan
24666;BME280;29726;53.532;-1.478;2022-08-19T10:09:00;100203.34;;;22.55;nan
24666;BME280;29726;53.532;-1.478;2022-08-19T10:11:25;100213.81;;;22.60;nan
24666;BME280;29726;53.532;-1.478;2022-08-19T10:13:51;100207.78;;;22.64;nan
24666;BME280;29726;53.532;-1.478;2022-08-19T10:16:20;100210.38;;;22.62;nan
24666;BME280;29726;53.532;-1.478;2022-08-19T10:18:48;100215.78;;;22.73;nan
24666;BME280;29726;53.532;-1.478;2022-08-19T10:21:17;100222.03;;;22.71;nan
24666;BME280;29726;53.532;-1.478;2022-08-19T10:23:46;100217.19;;;22.79;nan
24666;BME280;29726;53.532;-1.478;2022-08-19T10:26:16;100212.44;;;22.82;nan
24666;BME280;29726;53.532;-1.478;2022-08-19T10:28:42;100212.63;;;22.84;nan
24666;BME280;29726;53.532;-1.478;2022-08-19T10:31:21;100211.31;;;22.85;nan
24666;BME280;29726;53.532;-1.478;2022-08-19T10:33:48;100201.69;;;22.88;nan
24666;BME280;29726;53.532;-1.478;2022-08-19T10:36:19;100207.56;;;22.90;nan
24666;BME280;29726;53.532;-1.478;2022-08-19T10:38:46;100188.34;;;22.83;nan
24666;BME280;29726;53.532;-1.478;2022-08-19T10:41:20;100213.47;;;22.92;nan
24666;BME280;29726;53.532;-1.478;2022-08-19T10:43:47;100213.66;;;22.94;nan
24666;BME280;29726;53.532;-1.478;2022-08-19T10:46:16;100205.66;;;22.92;nan
24666;BME280;29726;53.532;-1.478;2022-08-19T10:48:42;100211.00;;;22.96;nan
24666;BME280;29726;53.532;-1.478;2022-08-19T10:51:09;100212.75;;;22.99;nan
24666;BME280;29726;53.532;-1.478;2022-08-19T10:53:54;100176.94;;;22.83;nan
24666;BME280;29726;53.532;-1.478;2022-08-19T10:56:21;100209.75;;;23.04;nan
24666;BME280;29726;53.532;-1.478;2022-08-19T10:59:05;100212.22;;;23.08;nan
24666;BME280;29726;53.532;-1.478;2022-08-19T11:01:32;100204.78;;;23.05;nan
24666;BME280;29726;53.532;-1.478;2022-08-19T11:04:03;100207.84;;;23.07;nan
24666;BME280;29726;53.532;-1.478;2022-08-19T11:06:31;100224.56;;;23.10;nan
24666;BME280;29726;53.532;-1.478;2022-08-19T11:08:57;100207.72;;;23.12;nan
24666;BME280;29726;53.532;-1.478;2022-08-19T11:11:25;100213.47;;;23.20;nan
24666;BME280;29726;53.532;-1.478;2022-08-19T11:13:51;100206.25;;;23.19;nan
24666;BME280;29726;53.532;-1.478;2022-08-19T11:16:23;100216.91;;;23.26;nan
24666;BME280;29726;53.532;-1.478;2022-08-19T11:18:54;100212.16;;;23.28;nan
24666;BME280;29726;53.532;-1.478;2022-08-19T11:21:26;100217.50;;;23.32;nan
24666;BME280;29726;53.532;-1.478;2022-08-19T11:23:55;100214.63;;;23.32;nan
24666;BME280;29726;53.532;-1.478;2022-08-19T11:26:21;100192.03;;;23.26;nan
24666;BME280;29726;53.532;-1.478;2022-08-19T11:28:47;100192.06;;;23.34;nan
24666;BME280;29726;53.532;-1.478;2022-08-19T11:31:16;100188.28;;;23.39;nan
24666;BME280;29726;53.532;-1.478;2022-08-19T11:33:43;100194.38;;;23.43;nan
24666;BME280;29726;53.532;-1.478;2022-08-19T11:36:09;100201.06;;;23.45;nan
24666;BME280;29726;53.532;-1.478;2022-08-19T11:38:36;100198.00;;;23.51;nan
24666;BME280;29726;53.532;-1.478;2022-08-19T11:41:04;100201.81;;;23.53;nan
24666;BME280;29726;53.532;-1.478;2022-08-19T11:43:30;100202.38;;;23.52;nan
24666;BME280;29726;53.532;-1.478;2022-08-19T11:45:56;100222.56;;;23.61;nan
24666;BME280;29726;53.532;-1.478;2022-08-19T11:48:23;100217.44;;;23.60;nan
24666;BME280;29726;53.532;-1.478;2022-08-19T11:50:50;100219.34;;;23.65;nan
24666;BME280;29726;53.532;-1.478;2022-08-19T11:53:17;100225.25;;;23.67;nan
24666;BME280;29726;53.532;-1.478;2022-08-19T11:55:44;100233.06;;;23.73;nan
24666;BME280;29726;53.532;-1.478;2022-08-19T11:58:10;100227.53;;;23.75;nan
24666;BME280;29726;53.532;-1.478;2022-08-19T12:00:37;100219.56;;;23.74;nan
24666;BME280;29726;53.532;-1.478;2022-08-19T12:03:03;100225.34;;;23.82;nan
24666;BME280;29726;53.532;-1.478;2022-08-19T12:05:29;100229.13;;;23.84;nan
24666;BME280;29726;53.532;-1.478;2022-08-19T12:07:54;100222.88;;;23.85;nan
24666;BME280;29726;53.532;-1.478;2022-08-19T12:10:20;100212.78;;;23.84;nan
24666;BME280;29726;53.532;-1.478;2022-08-19T12:12:46;100218.53;;;23.92;nan
24666;BME280;29726;53.532;-1.478;2022-08-19T12:15:12;100213.91;;;23.89;nan
24666;BME280;29726;53.532;-1.478;2022-08-19T12:17:39;100225.16;;;23.94;nan
24666;BME280;29726;53.532;-1.478;2022-08-19T12:20:08;100224.03;;;23.97;nan
24666;BME280;29726;53.532;-1.478;2022-08-19T12:22:36;100229.16;;;23.99;nan
24666;BME280;29726;53.532;-1.478;2022-08-19T12:25:04;100205.78;;;23.93;nan
24666;BME280;29726;53.532;-1.478;2022-08-19T12:27:30;100208.81;;;23.95;nan
24666;BME280;29726;53.532;-1.478;2022-08-19T12:29:56;100226.16;;;24.04;nan
24666;BME280;29726;53.532;-1.478;2022-08-19T12:32:23;100224.63;;;24.03;nan
24666;BME280;29726;53.532;-1.478;2022-08-19T12:34:50;100222.34;;;24.02;nan
24666;BME280;29726;53.532;-1.478;2022-08-19T12:37:15;100221.56;;;24.01;nan
24666;BME280;29726;53.532;-1.478;2022-08-19T12:39:43;100222.53;;;24.04;nan
24666;BME280;29726;53.532;-1.478;2022-08-19T12:42:11;100232.03;;;24.06;nan
24666;BME280;29726;53.532;-1.478;2022-08-19T12:44:38;100230.72;;;24.07;nan
24666;BME280;29726;53.532;-1.478;2022-08-19T12:47:05;100292.31;;;24.03;nan
24666;BME280;29726;53.532;-1.478;2022-08-19T12:49:32;100285.09;;;24.02;nan
24666;BME280;29726;53.532;-1.478;2022-08-19T12:52:03;100285.44;;;23.98;nan
24666;BME280;29726;53.532;-1.478;2022-08-19T12:54:28;100261.28;;;23.99;nan
24666;BME280;29726;53.532;-1.478;2022-08-19T12:56:56;100265.66;;;24.00;nan
24666;BME280;29726;53.532;-1.478;2022-08-19T12:59:22;100280.72;;;24.01;nan
24666;BME280;29726;53.532;-1.478;2022-08-19T13:01:48;100267.97;;;24.02;nan
24666;BME280;29726;53.532;-1.478;2022-08-19T13:04:13;100265.13;;;24.02;nan
24666;BME280;29726;53.532;-1.478;2022-08-19T13:06:39;100268.94;;;24.04;nan
24666;BME280;29726;53.532;-1.478;2022-08-19T13:09:04;100271.97;;;24.06;nan
24666;BME280;29726;53.532;-1.478;2022-08-19T13:11:30;100257.53;;;24.04;nan
24666;BME280;29726;53.532;-1.478;2022-08-19T13:14:00;100275.97;;;24.11;nan
24666;BME280;29726;53.532;-1.478;2022-08-19T13:16:27;100268.94;;;24.12;nan
24666;BME280;29726;53.532;-1.478;2022-08-19T13:18:54;100265.34;;;24.11;nan
24666;BME280;29726;53.532;-1.478;2022-08-19T13:21:23;100271.03;;;24.11;nan